Flight Briefing for CPX408

Departure Arrival
Tulsa International Airport (KTUL)
Click to view FAA NOTAMS
Chicago/Rockford International Airport (KRFD)
Click to view FAA NOTAMS
Departure Time Arrival Time
N/A N/A
Aircraft Distance
B757-200SF 479nm
Departure METAR Arrival METAR
KTUL 192253Z 35006KT 2SM -RA BR OVC022 01/00 A3003 RMK AO2 SLP172 P0007 T00110000 KRFD 192254Z 06005KT 10SM FEW160 OVC250 M03/M10 A3048 RMK AO2 SLP336 T10331100
Suggested Route
TUL5 EOS J181 BAYLI J105 BDF


View recent IFR Routes data
Notes



Charts and Procedures

Charts for KTUL
No chart available
Charts for KRFD
No chart available

Ventusky Weather




{"cat":null,"equip":null,"transponder":null,"pbn":"PBN\/","maxpax":null,"oew":"0.0","mzfw":"0.0","mtow":"0.0","mlw":"0.0","maxfuel":"0.0"} DEVELOPMENTAL TEST USE ONLY